sensor_id;sensor_type;location;lat;lon;timestamp;temperature;humidity
61896;DHT22;47835;52.778;5.956;2023-12-20T00:00:01;6.30;99.90
61896;DHT22;47835;52.778;5.956;2023-12-20T00:02:26;6.30;99.90
61896;DHT22;47835;52.778;5.956;2023-12-20T00:04:59;6.20;99.90
61896;DHT22;47835;52.778;5.956;2023-12-20T00:07:25;6.20;99.90
61896;DHT22;47835;52.778;5.956;2023-12-20T00:09:51;6.20;99.90
61896;DHT22;47835;52.778;5.956;2023-12-20T00:12:16;6.30;99.90
61896;DHT22;47835;52.778;5.956;2023-12-20T00:14:42;6.30;99.90
61896;DHT22;47835;52.778;5.956;2023-12-20T00:17:08;6.20;99.90
61896;DHT22;47835;52.778;5.956;2023-12-20T00:19:36;6.20;99.90
61896;DHT22;47835;52.778;5.956;2023-12-20T00:22:01;6.30;99.90
61896;DHT22;47835;52.778;5.956;2023-12-20T00:24:27;6.20;99.90
61896;DHT22;47835;52.778;5.956;2023-12-20T00:26:53;6.20;99.90
61896;DHT22;47835;52.778;5.956;2023-12-20T00:29:19;6.20;99.90
61896;DHT22;47835;52.778;5.956;2023-12-20T00:31:47;6.20;99.90
61896;DHT22;47835;52.778;5.956;2023-12-20T00:34:13;6.20;99.90
61896;DHT22;47835;52.778;5.956;2023-12-20T00:36:39;6.30;99.90
61896;DHT22;47835;52.778;5.956;2023-12-20T00:39:04;6.10;99.90
61896;DHT22;47835;52.778;5.956;2023-12-20T00:41:30;6.20;99.90
61896;DHT22;47835;52.778;5.956;2023-12-20T00:43:56;6.20;99.90
61896;DHT22;47835;52.778;5.956;2023-12-20T00:46:21;6.20;99.90
61896;DHT22;47835;52.778;5.956;2023-12-20T00:48:47;6.30;99.90
61896;DHT22;47835;52.778;5.956;2023-12-20T00:51:13;6.20;99.90
61896;DHT22;47835;52.778;5.956;2023-12-20T00:53:38;6.10;99.90
61896;DHT22;47835;52.778;5.956;2023-12-20T00:56:04;6.10;99.90
61896;DHT22;47835;52.778;5.956;2023-12-20T00:58:30;6.30;99.90
61896;DHT22;47835;52.778;5.956;2023-12-20T01:00:56;6.20;99.90
61896;DHT22;47835;52.778;5.956;2023-12-20T01:03:22;6.40;99.90
61896;DHT22;47835;52.778;5.956;2023-12-20T01:05:47;6.40;99.90
61896;DHT22;47835;52.778;5.956;2023-12-20T01:08:13;6.50;99.90
61896;DHT22;47835;52.778;5.956;2023-12-20T01:10:39;6.60;99.90
61896;DHT22;47835;52.778;5.956;2023-12-20T01:13:05;6.60;99.90
61896;DHT22;47835;52.778;5.956;2023-12-20T01:15:31;6.60;99.90
61896;DHT22;47835;52.778;5.956;2023-12-20T01:17:57;6.60;99.90
61896;DHT22;47835;52.778;5.956;2023-12-20T01:20:24;6.60;99.90
61896;DHT22;47835;52.778;5.956;2023-12-20T01:22:51;6.50;99.90
61896;DHT22;47835;52.778;5.956;2023-12-20T01:25:16;6.50;99.90
61896;DHT22;47835;52.778;5.956;2023-12-20T01:27:42;6.50;99.90
61896;DHT22;47835;52.778;5.956;2023-12-20T01:30:08;6.50;99.90
61896;DHT22;47835;52.778;5.956;2023-12-20T01:32:34;6.60;99.90
61896;DHT22;47835;52.778;5.956;2023-12-20T01:35:00;6.50;99.90
61896;DHT22;47835;52.778;5.956;2023-12-20T01:37:25;6.40;99.90
61896;DHT22;47835;52.778;5.956;2023-12-20T01:39:57;6.60;99.90
61896;DHT22;47835;52.778;5.956;2023-12-20T01:42:24;6.50;99.90
61896;DHT22;47835;52.778;5.956;2023-12-20T01:44:52;6.70;99.90
61896;DHT22;47835;52.778;5.956;2023-12-20T01:47:23;6.70;99.90
61896;DHT22;47835;52.778;5.956;2023-12-20T01:49:52;6.70;99.90
61896;DHT22;47835;52.778;5.956;2023-12-20T01:52:19;6.70;99.90
61896;DHT22;47835;52.778;5.956;2023-12-20T01:54:52;6.70;99.90
61896;DHT22;47835;52.778;5.956;2023-12-20T01:57:27;6.70;99.90
61896;DHT22;47835;52.778;5.956;2023-12-20T02:00:01;6.50;99.90
61896;DHT22;47835;52.778;5.956;2023-12-20T02:02:39;6.60;99.90
61896;DHT22;47835;52.778;5.956;2023-12-20T02:05:08;6.70;99.90
61896;DHT22;47835;52.778;5.956;2023-12-20T02:07:34;6.70;99.90
61896;DHT22;47835;52.778;5.956;2023-12-20T02:10:01;6.80;99.90
61896;DHT22;47835;52.778;5.956;2023-12-20T02:12:27;6.80;99.90
61896;DHT22;47835;52.778;5.956;2023-12-20T02:14:53;6.80;99.90
61896;DHT22;47835;52.778;5.956;2023-12-20T02:17:20;6.70;99.90
61896;DHT22;47835;52.778;5.956;2023-12-20T02:19:45;6.80;99.90
61896;DHT22;47835;52.778;5.956;2023-12-20T02:22:12;6.80;99.90
61896;DHT22;47835;52.778;5.956;2023-12-20T02:24:38;6.80;99.90
61896;DHT22;47835;52.778;5.956;2023-12-20T02:27:06;6.80;99.90
61896;DHT22;47835;52.778;5.956;2023-12-20T02:29:34;6.80;99.90
61896;DHT22;47835;52.778;5.956;2023-12-20T02:32:00;6.90;99.90
61896;DHT22;47835;52.778;5.956;2023-12-20T02:34:29;6.80;99.90
61896;DHT22;47835;52.778;5.956;2023-12-20T02:36:55;6.90;99.90
61896;DHT22;47835;52.778;5.956;2023-12-20T02:39:22;6.80;99.90
61896;DHT22;47835;52.778;5.956;2023-12-20T02:41:54;7.00;99.90
61896;DHT22;47835;52.778;5.956;2023-12-20T02:44:20;6.90;99.90
61896;DHT22;47835;52.778;5.956;2023-12-20T02:46:49;7.10;99.90
61896;DHT22;47835;52.778;5.956;2023-12-20T02:49:17;7.10;99.90
61896;DHT22;47835;52.778;5.956;2023-12-20T02:51:43;7.00;99.90
61896;DHT22;47835;52.778;5.956;2023-12-20T02:54:09;6.90;99.90
61896;DHT22;47835;52.778;5.956;2023-12-20T02:56:37;7.00;99.90
61896;DHT22;47835;52.778;5.956;2023-12-20T02:59:05;7.00;99.90
61896;DHT22;47835;52.778;5.956;2023-12-20T03:01:34;7.00;99.90
61896;DHT22;47835;52.778;5.956;2023-12-20T03:04:06;7.00;99.90
61896;DHT22;47835;52.778;5.956;2023-12-20T03:06:32;7.00;99.90
61896;DHT22;47835;52.778;5.956;2023-12-20T03:08:59;7.10;99.90
61896;DHT22;47835;52.778;5.956;2023-12-20T03:11:28;7.00;99.90
61896;DHT22;47835;52.778;5.956;2023-12-20T03:13:55;7.10;99.90
61896;DHT22;47835;52.778;5.956;2023-12-20T03:16:23;7.10;99.90
61896;DHT22;47835;52.778;5.956;2023-12-20T03:18:49;7.00;99.90
61896;DHT22;47835;52.778;5.956;2023-12-20T03:21:15;7.00;99.90
61896;DHT22;47835;52.778;5.956;2023-12-20T03:23:41;7.10;99.90
61896;DHT22;47835;52.778;5.956;2023-12-20T03:26:08;7.20;99.90
61896;DHT22;47835;52.778;5.956;2023-12-20T03:28:34;7.10;99.90
61896;DHT22;47835;52.778;5.956;2023-12-20T03:31:03;7.10;99.90
61896;DHT22;47835;52.778;5.956;2023-12-20T03:33:33;7.10;99.90
61896;DHT22;47835;52.778;5.956;2023-12-20T03:35:59;7.10;99.90
61896;DHT22;47835;52.778;5.956;2023-12-20T03:38:27;7.00;99.90
61896;DHT22;47835;52.778;5.956;2023-12-20T03:40:55;7.10;99.90
61896;DHT22;47835;52.778;5.956;2023-12-20T03:43:21;7.10;99.90
61896;DHT22;47835;52.778;5.956;2023-12-20T03:45:47;7.00;99.90
61896;DHT22;47835;52.778;5.956;2023-12-20T03:48:16;7.00;99.90
61896;DHT22;47835;52.778;5.956;2023-12-20T03:50:43;7.00;99.90
61896;DHT22;47835;52.778;5.956;2023-12-20T03:53:09;6.90;99.90
61896;DHT22;47835;52.778;5.956;2023-12-20T03:55:38;7.00;99.90
61896;DHT22;47835;52.778;5.956;2023-12-20T03:58:04;6.90;99.90
61896;DHT22;47835;52.778;5.956;2023-12-20T04:00:35;6.90;99.90
61896;DHT22;47835;52.778;5.956;2023-12-20T04:03:03;7.00;99.90
61896;DHT22;47835;52.778;5.956;2023-12-20T04:05:32;7.00;99.90
61896;DHT22;47835;52.778;5.956;2023-12-20T04:07:59;7.10;99.90
61896;DHT22;47835;52.778;5.956;2023-12-20T04:10:25;7.10;99.90
61896;DHT22;47835;52.778;5.956;2023-12-20T04:12:50;7.20;99.90
61896;DHT22;47835;52.778;5.956;2023-12-20T04:15:16;7.20;99.90
61896;DHT22;47835;52.778;5.956;2023-12-20T04:17:42;7.20;99.90
61896;DHT22;47835;52.778;5.956;2023-12-20T04:20:08;7.20;99.90
61896;DHT22;47835;52.778;5.956;2023-12-20T04:22:34;7.20;99.90
61896;DHT22;47835;52.778;5.956;2023-12-20T04:24:59;7.30;99.90
61896;DHT22;47835;52.778;5.956;2023-12-20T04:27:25;7.30;99.90
61896;DHT22;47835;52.778;5.956;2023-12-20T04:29:51;7.30;99.90
61896;DHT22;47835;52.778;5.956;2023-12-20T04:32:16;7.40;99.90
61896;DHT22;47835;52.778;5.956;2023-12-20T04:34:42;7.40;99.90
61896;DHT22;47835;52.778;5.956;2023-12-20T04:37:11;7.40;99.90
61896;DHT22;47835;52.778;5.956;2023-12-20T04:39:38;7.30;99.90
61896;DHT22;47835;52.778;5.956;2023-12-20T04:42:03;7.30;99.90
61896;DHT22;47835;52.778;5.956;2023-12-20T04:44:32;7.30;99.90
61896;DHT22;47835;52.778;5.956;2023-12-20T04:47:00;7.40;99.90
61896;DHT22;47835;52.778;5.956;2023-12-20T04:49:28;7.30;99.90
61896;DHT22;47835;52.778;5.956;2023-12-20T04:51:57;7.40;99.90
61896;DHT22;47835;52.778;5.956;2023-12-20T04:54:29;7.50;99.90
61896;DHT22;47835;52.778;5.956;2023-12-20T04:56:55;7.50;99.90
61896;DHT22;47835;52.778;5.956;2023-12-20T04:59:20;7.60;99.90
61896;DHT22;47835;52.778;5.956;2023-12-20T05:01:51;7.60;99.90
61896;DHT22;47835;52.778;5.956;2023-12-20T05:04:17;7.50;99.90
61896;DHT22;47835;52.778;5.956;2023-12-20T05:06:46;7.60;99.90
61896;DHT22;47835;52.778;5.956;2023-12-20T05:09:17;7.50;99.90
61896;DHT22;47835;52.778;5.956;2023-12-20T05:11:45;7.50;99.90
61896;DHT22;47835;52.778;5.956;2023-12-20T05:14:41;7.60;99.90
61896;DHT22;47835;52.778;5.956;2023-12-20T05:17:09;7.60;99.90
61896;DHT22;47835;52.778;5.956;2023-12-20T05:22:29;7.40;99.90
61896;DHT22;47835;52.778;5.956;2023-12-20T05:25:00;7.50;99.90
61896;DHT22;47835;52.778;5.956;2023-12-20T05:27:30;7.50;99.90
61896;DHT22;47835;52.778;5.956;2023-12-20T05:29:58;7.60;99.90
61896;DHT22;47835;52.778;5.956;2023-12-20T05:32:24;7.50;99.90
61896;DHT22;47835;52.778;5.956;2023-12-20T05:34:50;7.50;99.90
61896;DHT22;47835;52.778;5.956;2023-12-20T05:37:16;7.50;99.90
61896;DHT22;47835;52.778;5.956;2023-12-20T05:39:42;7.60;99.90
61896;DHT22;47835;52.778;5.956;2023-12-20T05:42:07;7.50;99.90
61896;DHT22;47835;52.778;5.956;2023-12-20T05:44:33;7.60;99.90
61896;DHT22;47835;52.778;5.956;2023-12-20T05:47:01;7.60;99.90
61896;DHT22;47835;52.778;5.956;2023-12-20T05:49:27;7.60;99.90
61896;DHT22;47835;52.778;5.956;2023-12-20T05:51:55;7.60;99.90
61896;DHT22;47835;52.778;5.956;2023-12-20T05:54:21;7.70;99.90
61896;DHT22;47835;52.778;5.956;2023-12-20T05:56:47;7.70;99.90
61896;DHT22;47835;52.778;5.956;2023-12-20T05:59:13;7.60;99.90
61896;DHT22;47835;52.778;5.956;2023-12-20T06:01:39;7.60;99.90
61896;DHT22;47835;52.778;5.956;2023-12-20T06:04:05;7.60;99.90
61896;DHT22;47835;52.778;5.956;2023-12-20T06:06:30;7.60;99.90
61896;DHT22;47835;52.778;5.956;2023-12-20T06:08:56;7.60;99.90
61896;DHT22;47835;52.778;5.956;2023-12-20T06:11:22;7.60;99.90
61896;DHT22;47835;52.778;5.956;2023-12-20T06:13:48;7.60;99.90
61896;DHT22;47835;52.778;5.956;2023-12-20T06:16:16;7.70;99.90
61896;DHT22;47835;52.778;5.956;2023-12-20T06:18:42;7.70;99.90
61896;DHT22;47835;52.778;5.956;2023-12-20T06:21:08;7.70;99.90
61896;DHT22;47835;52.778;5.956;2023-12-20T06:23:38;7.70;99.90
61896;DHT22;47835;52.778;5.956;2023-12-20T06:26:04;7.70;99.90
61896;DHT22;47835;52.778;5.956;2023-12-20T06:28:29;7.70;99.90
61896;DHT22;47835;52.778;5.956;2023-12-20T06:30:55;7.60;99.90
61896;DHT22;47835;52.778;5.956;2023-12-20T06:33:22;7.70;99.90
61896;DHT22;47835;52.778;5.956;2023-12-20T06:35:48;7.70;99.90
61896;DHT22;47835;52.778;5.956;2023-12-20T06:38:14;7.80;99.90
61896;DHT22;47835;52.778;5.956;2023-12-20T06:40:42;7.70;99.90
61896;DHT22;47835;52.778;5.956;2023-12-20T06:43:08;7.80;99.90
61896;DHT22;47835;52.778;5.956;2023-12-20T06:45:34;7.80;99.90
61896;DHT22;47835;52.778;5.956;2023-12-20T06:48:00;7.90;99.90
61896;DHT22;47835;52.778;5.956;2023-12-20T06:50:25;7.80;99.90
61896;DHT22;47835;52.778;5.956;2023-12-20T06:52:51;7.80;99.90
61896;DHT22;47835;52.778;5.956;2023-12-20T06:55:18;7.90;99.90
61896;DHT22;47835;52.778;5.956;2023-12-20T06:57:43;7.90;99.90
61896;DHT22;47835;52.778;5.956;2023-12-20T07:00:11;7.80;99.90
61896;DHT22;47835;52.778;5.956;2023-12-20T07:02:40;7.80;99.90
61896;DHT22;47835;52.778;5.956;2023-12-20T07:05:06;7.90;99.90
61896;DHT22;47835;52.778;5.956;2023-12-20T07:07:34;8.00;99.90
61896;DHT22;47835;52.778;5.956;2023-12-20T07:10:00;8.00;99.90
61896;DHT22;47835;52.778;5.956;2023-12-20T07:12:26;8.00;99.90
61896;DHT22;47835;52.778;5.956;2023-12-20T07:14:51;8.00;99.90
61896;DHT22;47835;52.778;5.956;2023-12-20T07:17:17;8.10;99.90
61896;DHT22;47835;52.778;5.956;2023-12-20T07:19:45;8.00;99.90
61896;DHT22;47835;52.778;5.956;2023-12-20T07:22:11;8.10;99.90
61896;DHT22;47835;52.778;5.956;2023-12-20T07:24:37;8.10;99.90
61896;DHT22;47835;52.778;5.956;2023-12-20T07:27:14;8.10;99.90
61896;DHT22;47835;52.778;5.956;2023-12-20T07:29:45;8.20;99.90
61896;DHT22;47835;52.778;5.956;2023-12-20T07:32:18;8.20;99.90
61896;DHT22;47835;52.778;5.956;2023-12-20T07:34:44;8.10;99.90
61896;DHT22;47835;52.778;5.956;2023-12-20T07:37:12;8.20;99.90
61896;DHT22;47835;52.778;5.956;2023-12-20T07:39:42;8.10;99.90
61896;DHT22;47835;52.778;5.956;2023-12-20T07:42:16;8.10;99.90
61896;DHT22;47835;52.778;5.956;2023-12-20T07:44:42;8.10;99.90
61896;DHT22;47835;52.778;5.956;2023-12-20T07:47:08;8.20;99.90
61896;DHT22;47835;52.778;5.956;2023-12-20T07:49:36;8.20;99.90
61896;DHT22;47835;52.778;5.956;2023-12-20T07:52:02;8.20;99.90
61896;DHT22;47835;52.778;5.956;2023-12-20T07:54:28;8.20;99.90
61896;DHT22;47835;52.778;5.956;2023-12-20T07:56:56;8.20;99.90
61896;DHT22;47835;52.778;5.956;2023-12-20T07:59:22;8.20;99.90
61896;DHT22;47835;52.778;5.956;2023-12-20T08:01:56;8.20;99.90
61896;DHT22;47835;52.778;5.956;2023-12-20T08:04:46;8.20;99.90
61896;DHT22;47835;52.778;5.956;2023-12-20T08:07:32;8.20;99.90
61896;DHT22;47835;52.778;5.956;2023-12-20T08:10:10;8.20;99.90
61896;DHT22;47835;52.778;5.956;2023-12-20T08:12:42;8.20;99.90
61896;DHT22;47835;52.778;5.956;2023-12-20T08:15:30;8.20;99.90
61896;DHT22;47835;52.778;5.956;2023-12-20T08:18:12;8.20;99.90
61896;DHT22;47835;52.778;5.956;2023-12-20T08:20:37;8.20;99.90
61896;DHT22;47835;52.778;5.956;2023-12-20T08:23:03;8.20;99.90
61896;DHT22;47835;52.778;5.956;2023-12-20T08:25:29;8.20;99.90
61896;DHT22;47835;52.778;5.956;2023-12-20T08:28:03;8.20;99.90
61896;DHT22;47835;52.778;5.956;2023-12-20T08:30:29;8.10;99.90
61896;DHT22;47835;52.778;5.956;2023-12-20T08:32:57;8.20;99.90
61896;DHT22;47835;52.778;5.956;2023-12-20T08:35:22;8.20;99.90
61896;DHT22;47835;52.778;5.956;2023-12-20T08:37:49;8.20;99.90
61896;DHT22;47835;52.778;5.956;2023-12-20T08:40:15;8.20;99.90
61896;DHT22;47835;52.778;5.956;2023-12-20T08:42:40;8.20;99.90
61896;DHT22;47835;52.778;5.956;2023-12-20T08:45:17;8.10;99.90
61896;DHT22;47835;52.778;5.956;2023-12-20T08:47:46;8.10;99.90
61896;DHT22;47835;52.778;5.956;2023-12-20T08:50:14;8.10;99.90
61896;DHT22;47835;52.778;5.956;2023-12-20T08:52:53;8.10;99.90
61896;DHT22;47835;52.778;5.956;2023-12-20T08:55:19;8.10;99.90
61896;DHT22;47835;52.778;5.956;2023-12-20T08:57:45;8.10;99.90
61896;DHT22;47835;52.778;5.956;2023-12-20T09:00:11;8.10;99.90
61896;DHT22;47835;52.778;5.956;2023-12-20T09:02:46;8.10;99.90
61896;DHT22;47835;52.778;5.956;2023-12-20T09:09:21;8.10;99.90
61896;DHT22;47835;52.778;5.956;2023-12-20T09:12:06;8.10;99.90
61896;DHT22;47835;52.778;5.956;2023-12-20T09:14:44;8.10;99.90
61896;DHT22;47835;52.778;5.956;2023-12-20T09:17:18;8.30;99.90
61896;DHT22;47835;52.778;5.956;2023-12-20T09:19:54;8.20;99.90
61896;DHT22;47835;52.778;5.956;2023-12-20T09:22:52;8.30;99.90
61896;DHT22;47835;52.778;5.956;2023-12-20T09:25:30;8.30;99.90
61896;DHT22;47835;52.778;5.956;2023-12-20T09:27:59;8.40;99.90
61896;DHT22;47835;52.778;5.956;2023-12-20T09:30:27;8.40;99.90
61896;DHT22;47835;52.778;5.956;2023-12-20T09:32:59;8.50;99.90
61896;DHT22;47835;52.778;5.956;2023-12-20T09:35:52;8.40;99.90
61896;DHT22;47835;52.778;5.956;2023-12-20T09:38:20;8.40;99.90
61896;DHT22;47835;52.778;5.956;2023-12-20T09:41:02;8.50;99.90
61896;DHT22;47835;52.778;5.956;2023-12-20T09:43:42;8.50;99.90
61896;DHT22;47835;52.778;5.956;2023-12-20T09:46:22;8.50;99.90
61896;DHT22;47835;52.778;5.956;2023-12-20T09:48:49;8.60;99.90
61896;DHT22;47835;52.778;5.956;2023-12-20T09:51:29;8.50;99.90
61896;DHT22;47835;52.778;5.956;2023-12-20T09:54:05;8.00;99.90
61896;DHT22;47835;52.778;5.956;2023-12-20T09:56:34;7.40;99.90
61896;DHT22;47835;52.778;5.956;2023-12-20T09:59:11;7.30;99.90
61896;DHT22;47835;52.778;5.956;2023-12-20T10:01:39;7.00;99.90
61896;DHT22;47835;52.778;5.956;2023-12-20T10:06:56;6.80;99.90
61896;DHT22;47835;52.778;5.956;2023-12-20T10:09:31;6.90;99.90
61896;DHT22;47835;52.778;5.956;2023-12-20T10:12:04;6.90;99.90
61896;DHT22;47835;52.778;5.956;2023-12-20T10:14:50;6.90;99.90
61896;DHT22;47835;52.778;5.956;2023-12-20T10:17:31;6.80;99.90
61896;DHT22;47835;52.778;5.956;2023-12-20T10:20:26;6.80;99.90
61896;DHT22;47835;52.778;5.956;2023-12-20T10:23:07;6.70;99.90
61896;DHT22;47835;52.778;5.956;2023-12-20T10:26:01;6.80;99.90
61896;DHT22;47835;52.778;5.956;2023-12-20T10:28:33;6.80;99.90
61896;DHT22;47835;52.778;5.956;2023-12-20T10:31:10;6.80;99.90
61896;DHT22;47835;52.778;5.956;2023-12-20T10:33:40;6.80;99.90
61896;DHT22;47835;52.778;5.956;2023-12-20T10:36:36;6.90;99.90
61896;DHT22;47835;52.778;5.956;2023-12-20T10:39:14;6.80;99.90
61896;DHT22;47835;52.778;5.956;2023-12-20T10:41:40;6.70;99.90
61896;DHT22;47835;52.778;5.956;2023-12-20T10:44:21;6.90;99.90
61896;DHT22;47835;52.778;5.956;2023-12-20T10:46:49;6.80;99.90
61896;DHT22;47835;52.778;5.956;2023-12-20T10:49:20;6.70;99.90
61896;DHT22;47835;52.778;5.956;2023-12-20T10:55:11;6.80;99.90
61896;DHT22;47835;52.778;5.956;2023-12-20T10:57:43;6.80;99.90
61896;DHT22;47835;52.778;5.956;2023-12-20T11:00:40;6.70;99.90
61896;DHT22;47835;52.778;5.956;2023-12-20T11:03:17;6.80;99.90
61896;DHT22;47835;52.778;5.956;2023-12-20T11:08:39;6.70;99.90
61896;DHT22;47835;52.778;5.956;2023-12-20T11:11:26;6.70;99.90
61896;DHT22;47835;52.778;5.956;2023-12-20T11:14:08;6.80;99.90
61896;DHT22;47835;52.778;5.956;2023-12-20T11:16:41;6.80;99.90
61896;DHT22;47835;52.778;5.956;2023-12-20T11:19:07;6.80;99.90
61896;DHT22;47835;52.778;5.956;2023-12-20T11:21:33;7.00;99.90
61896;DHT22;47835;52.778;5.956;2023-12-20T11:24:03;6.90;99.90
61896;DHT22;47835;52.778;5.956;2023-12-20T11:26:32;6.90;99.90
61896;DHT22;47835;52.778;5.956;2023-12-20T11:29:35;6.90;99.90
61896;DHT22;47835;52.778;5.956;2023-12-20T11:32:03;6.90;99.90
61896;DHT22;47835;52.778;5.956;2023-12-20T11:34:32;6.90;99.90
61896;DHT22;47835;52.778;5.956;2023-12-20T11:37:20;6.90;99.90
61896;DHT22;47835;52.778;5.956;2023-12-20T11:39:57;6.80;99.90
61896;DHT22;47835;52.778;5.956;2023-12-20T11:42:39;6.90;99.90
61896;DHT22;47835;52.778;5.956;2023-12-20T11:45:30;6.80;99.90
61896;DHT22;47835;52.778;5.956;2023-12-20T11:47:56;6.90;99.90
61896;DHT22;47835;52.778;5.956;2023-12-20T11:50:38;6.80;99.90
61896;DHT22;47835;52.778;5.956;2023-12-20T11:53:05;6.80;99.90
61896;DHT22;47835;52.778;5.956;2023-12-20T11:55:33;6.90;99.90
61896;DHT22;47835;52.778;5.956;2023-12-20T11:58:05;6.90;99.90
61896;DHT22;47835;52.778;5.956;2023-12-20T12:00:44;6.80;99.90
61896;DHT22;47835;52.778;5.956;2023-12-20T12:03:15;6.80;99.90
61896;DHT22;47835;52.778;5.956;2023-12-20T12:05:52;6.80;99.90
61896;DHT22;47835;52.778;5.956;2023-12-20T12:08:56;6.80;99.90
61896;DHT22;47835;52.778;5.956;2023-12-20T12:11:50;6.80;99.90
61896;DHT22;47835;52.778;5.956;2023-12-20T12:14:34;6.80;99.90
61896;DHT22;47835;52.778;5.956;2023-12-20T12:17:03;6.80;99.90
61896;DHT22;47835;52.778;5.956;2023-12-20T12:19:34;6.80;99.90
61896;DHT22;47835;52.778;5.956;2023-12-20T12:22:24;6.80;99.90
61896;DHT22;47835;52.778;5.956;2023-12-20T12:25:37;6.70;99.90
61896;DHT22;47835;52.778;5.956;2023-12-20T12:28:17;6.80;99.90
61896;DHT22;47835;52.778;5.956;2023-12-20T12:31:12;6.70;99.90
61896;DHT22;47835;52.778;5.956;2023-12-20T12:33:51;6.80;99.90
61896;DHT22;47835;52.778;5.956;2023-12-20T12:36:30;6.80;99.90
61896;DHT22;47835;52.778;5.956;2023-12-20T12:39:04;6.80;99.90
61896;DHT22;47835;52.778;5.956;2023-12-20T12:45:15;6.80;99.90
61896;DHT22;47835;52.778;5.956;2023-12-20T12:54:17;6.90;99.90
61896;DHT22;47835;52.778;5.956;2023-12-20T12:56:51;6.80;99.90
61896;DHT22;47835;52.778;5.956;2023-12-20T12:59:42;6.80;99.90
61896;DHT22;47835;52.778;5.956;2023-12-20T13:02:24;6.90;99.90
61896;DHT22;47835;52.778;5.956;2023-12-20T13:08:34;6.90;99.90
61896;DHT22;47835;52.778;5.956;2023-12-20T13:11:00;6.90;99.90
61896;DHT22;47835;52.778;5.956;2023-12-20T13:13:31;6.90;99.90
61896;DHT22;47835;52.778;5.956;2023-12-20T13:16:00;6.90;99.90
61896;DHT22;47835;52.778;5.956;2023-12-20T13:18:28;6.90;99.90
61896;DHT22;47835;52.778;5.956;2023-12-20T13:21:18;6.90;99.90
61896;DHT22;47835;52.778;5.956;2023-12-20T13:23:49;7.10;99.90
61896;DHT22;47835;52.778;5.956;2023-12-20T13:26:25;7.10;99.90
61896;DHT22;47835;52.778;5.956;2023-12-20T13:28:54;7.10;99.90
61896;DHT22;47835;52.778;5.956;2023-12-20T13:31:45;7.20;99.90
61896;DHT22;47835;52.778;5.956;2023-12-20T13:34:26;7.40;99.90
61896;DHT22;47835;52.778;5.956;2023-12-20T13:36:52;7.70;99.90
61896;DHT22;47835;52.778;5.956;2023-12-20T13:39:26;7.80;99.90
61896;DHT22;47835;52.778;5.956;2023-12-20T13:42:05;7.90;99.90
61896;DHT22;47835;52.778;5.956;2023-12-20T13:44:35;8.00;99.90
61896;DHT22;47835;52.778;5.956;2023-12-20T13:47:13;8.10;99.90
61896;DHT22;47835;52.778;5.956;2023-12-20T13:49:38;8.10;99.90
61896;DHT22;47835;52.778;5.956;2023-12-20T13:52:07;8.10;99.90
61896;DHT22;47835;52.778;5.956;2023-12-20T13:54:35;8.20;99.90
61896;DHT22;47835;52.778;5.956;2023-12-20T13:57:08;8.20;99.90
61896;DHT22;47835;52.778;5.956;2023-12-20T13:59:58;8.20;99.90
61896;DHT22;47835;52.778;5.956;2023-12-20T14:02:29;8.20;99.90
61896;DHT22;47835;52.778;5.956;2023-12-20T14:05:16;8.30;99.90
61896;DHT22;47835;52.778;5.956;2023-12-20T14:08:00;8.20;99.90
61896;DHT22;47835;52.778;5.956;2023-12-20T14:10:45;8.20;99.90
61896;DHT22;47835;52.778;5.956;2023-12-20T14:13:37;8.20;99.90
61896;DHT22;47835;52.778;5.956;2023-12-20T14:16:05;8.20;99.90
61896;DHT22;47835;52.778;5.956;2023-12-20T14:18:30;8.20;99.90
61896;DHT22;47835;52.778;5.956;2023-12-20T14:27:51;8.30;99.90
61896;DHT22;47835;52.778;5.956;2023-12-20T14:30:25;8.30;99.90
61896;DHT22;47835;52.778;5.956;2023-12-20T14:32:58;8.30;99.90
61896;DHT22;47835;52.778;5.956;2023-12-20T14:35:54;8.20;99.90
61896;DHT22;47835;52.778;5.956;2023-12-20T14:38:36;8.30;99.90
61896;DHT22;47835;52.778;5.956;2023-12-20T14:41:03;8.20;99.90
61896;DHT22;47835;52.778;5.956;2023-12-20T14:43:31;8.20;99.90
61896;DHT22;47835;52.778;5.956;2023-12-20T14:46:20;8.10;99.90
61896;DHT22;47835;52.778;5.956;2023-12-20T14:56:32;8.20;99.90
61896;DHT22;47835;52.778;5.956;2023-12-20T14:59:30;8.10;99.90
61896;DHT22;47835;52.778;5.956;2023-12-20T15:02:49;8.20;99.90
61896;DHT22;47835;52.778;5.956;2023-12-20T15:05:42;8.20;99.90
61896;DHT22;47835;52.778;5.956;2023-12-20T15:16:16;8.20;99.90
61896;DHT22;47835;52.778;5.956;2023-12-20T15:22:55;8.20;99.90
61896;DHT22;47835;52.778;5.956;2023-12-20T15:32:45;8.10;99.90
61896;DHT22;47835;52.778;5.956;2023-12-20T15:35:16;8.10;99.90
61896;DHT22;47835;52.778;5.956;2023-12-20T15:38:00;8.00;99.90
61896;DHT22;47835;52.778;5.956;2023-12-20T15:40:44;8.10;99.90
61896;DHT22;47835;52.778;5.956;2023-12-20T15:43:17;8.10;99.90
61896;DHT22;47835;52.778;5.956;2023-12-20T15:45:48;8.10;99.90
61896;DHT22;47835;52.778;5.956;2023-12-20T15:48:17;8.10;99.90
61896;DHT22;47835;52.778;5.956;2023-12-20T15:51:07;8.10;99.90
61896;DHT22;47835;52.778;5.956;2023-12-20T15:56:44;8.20;99.90
61896;DHT22;47835;52.778;5.956;2023-12-20T15:59:47;8.10;99.90
61896;DHT22;47835;52.778;5.956;2023-12-20T16:03:10;8.10;99.90
61896;DHT22;47835;52.778;5.956;2023-12-20T16:06:30;8.20;99.90
61896;DHT22;47835;52.778;5.956;2023-12-20T16:12:18;8.20;99.90
61896;DHT22;47835;52.778;5.956;2023-12-20T16:15:27;8.30;99.90
61896;DHT22;47835;52.778;5.956;2023-12-20T16:18:28;8.30;99.90
61896;DHT22;47835;52.778;5.956;2023-12-20T16:25:21;8.20;99.90
61896;DHT22;47835;52.778;5.956;2023-12-20T16:32:44;8.30;99.90
61896;DHT22;47835;52.778;5.956;2023-12-20T16:35:39;8.20;99.90
61896;DHT22;47835;52.778;5.956;2023-12-20T16:38:04;8.20;99.90
61896;DHT22;47835;52.778;5.956;2023-12-20T16:40:44;8.20;99.90
61896;DHT22;47835;52.778;5.956;2023-12-20T16:43:18;8.20;99.90
61896;DHT22;47835;52.778;5.956;2023-12-20T16:46:09;8.20;99.90
61896;DHT22;47835;52.778;5.956;2023-12-20T16:48:37;8.20;99.90
61896;DHT22;47835;52.778;5.956;2023-12-20T16:51:12;8.20;99.90
61896;DHT22;47835;52.778;5.956;2023-12-20T16:54:09;8.20;99.90
61896;DHT22;47835;52.778;5.956;2023-12-20T16:56:44;8.20;99.90
61896;DHT22;47835;52.778;5.956;2023-12-20T16:59:10;8.30;99.90
61896;DHT22;47835;52.778;5.956;2023-12-20T17:01:57;8.30;99.90
61896;DHT22;47835;52.778;5.956;2023-12-20T17:04:32;8.30;99.90
61896;DHT22;47835;52.778;5.956;2023-12-20T17:07:11;8.20;99.90
61896;DHT22;47835;52.778;5.956;2023-12-20T17:36:49;8.20;99.90
61896;DHT22;47835;52.778;5.956;2023-12-20T17:39:29;8.20;99.90
61896;DHT22;47835;52.778;5.956;2023-12-20T18:04:14;8.30;99.90
61896;DHT22;47835;52.778;5.956;2023-12-20T18:07:34;8.20;99.90
61896;DHT22;47835;52.778;5.956;2023-12-20T18:10:37;8.20;99.90
61896;DHT22;47835;52.778;5.956;2023-12-20T18:25:26;8.30;99.90
61896;DHT22;47835;52.778;5.956;2023-12-20T18:35:33;8.40;99.90
61896;DHT22;47835;52.778;5.956;2023-12-20T18:38:39;8.50;99.90
61896;DHT22;47835;52.778;5.956;2023-12-20T18:44:47;8.40;99.90
61896;DHT22;47835;52.778;5.956;2023-12-20T18:48:06;8.40;99.90
61896;DHT22;47835;52.778;5.956;2023-12-20T18:51:33;8.40;99.90